createdAt,value
2017-04-16T00:00:26.072Z,58.00
2017-04-16T00:01:25.872Z,58.10
2017-04-16T00:02:25.664Z,57.70
2017-04-16T00:03:25.481Z,57.90
2017-04-16T00:04:25.257Z,57.70
2017-04-16T00:05:25.056Z,57.60
2017-04-16T00:06:25.873Z,57.50
2017-04-16T00:07:25.686Z,57.40
2017-04-16T00:08:25.449Z,57.60
2017-04-16T00:09:25.421Z,57.40
2017-04-16T00:10:25.196Z,57.60
2017-04-16T00:11:24.959Z,57.10
2017-04-16T00:12:24.784Z,57.40
2017-04-16T00:13:24.528Z,57.10
2017-04-16T00:14:24.284Z,56.70
2017-04-16T00:15:24.128Z,56.10
2017-04-16T00:16:23.868Z,55.90
2017-04-16T00:17:23.817Z,56.20
2017-04-16T00:18:24.283Z,55.70
2017-04-16T00:19:24.852Z,56.30
2017-04-16T00:20:25.316Z,55.40
2017-04-16T00:21:26.484Z,55.10
2017-04-16T00:22:26.280Z,55.20
2017-04-16T00:23:26.108Z,54.80
2017-04-16T00:24:25.856Z,54.80
2017-04-16T00:25:25.667Z,54.80
2017-04-16T00:26:26.148Z,54.70
2017-04-16T00:27:26.001Z,54.70
2017-04-16T00:28:25.756Z,54.70
2017-04-16T00:29:25.549Z,54.80
2017-04-16T00:30:25.304Z,55.00
2017-04-16T00:31:25.099Z,54.80
2017-04-16T00:32:24.904Z,55.10
2017-04-16T00:33:25.484Z,54.70
2017-04-16T00:34:25.494Z,54.60
2017-04-16T00:35:25.251Z,54.60
2017-04-16T00:36:25.035Z,54.60
2017-04-16T00:37:24.868Z,54.00
2017-04-16T00:38:24.724Z,54.30
2017-04-16T00:39:24.499Z,54.10
2017-04-16T00:40:24.304Z,53.90
2017-04-16T00:41:24.444Z,53.60
2017-04-16T00:42:24.939Z,53.70
2017-04-16T00:43:24.716Z,53.80
2017-04-16T00:44:24.511Z,53.40
2017-04-16T00:45:24.263Z,53.10
2017-04-16T00:46:24.828Z,53.00
2017-04-16T00:47:24.595Z,52.70
2017-04-16T00:48:24.371Z,52.40
2017-04-16T00:49:24.171Z,52.50
2017-04-16T00:50:23.964Z,52.50
2017-04-16T00:51:23.800Z,52.70
2017-04-16T00:52:23.575Z,52.70
2017-04-16T00:53:23.381Z,52.60
2017-04-16T00:54:23.908Z,52.80
2017-04-16T00:55:24.439Z,52.70
2017-04-16T00:56:24.204Z,52.30
2017-04-16T00:57:24.723Z,52.30
2017-04-16T00:58:24.519Z,52.30
2017-04-16T00:59:24.264Z,52.30
2017-04-16T01:00:28.299Z,52.20
2017-04-16T01:01:33.664Z,52.40
2017-04-16T01:02:39.181Z,52.00
2017-04-16T01:03:38.948Z,52.10
2017-04-16T01:04:38.744Z,52.00
2017-04-16T01:05:38.555Z,52.20
2017-04-16T01:06:38.321Z,52.00
2017-04-16T01:07:38.844Z,52.00
2017-04-16T01:08:39.396Z,52.10
2017-04-16T01:09:39.175Z,52.20
2017-04-16T01:10:38.948Z,52.70
2017-04-16T01:11:38.716Z,52.70
2017-04-16T01:12:38.952Z,52.70
2017-04-16T01:13:38.699Z,53.00
2017-04-16T01:14:38.444Z,53.10
2017-04-16T01:15:38.224Z,53.10
2017-04-16T01:16:38.043Z,52.90
2017-04-16T01:17:37.852Z,53.10
2017-04-16T01:18:37.611Z,53.10
2017-04-16T01:19:37.371Z,53.30
2017-04-16T01:20:37.903Z,53.80
2017-04-16T01:21:38.463Z,53.70
2017-04-16T01:22:38.223Z,53.90
2017-04-16T01:23:38.823Z,54.10
2017-04-16T01:24:38.539Z,54.20
2017-04-16T01:25:39.071Z,54.20
2017-04-16T01:26:38.852Z,54.30
2017-04-16T01:27:38.639Z,54.30
2017-04-16T01:28:38.476Z,54.60
2017-04-16T01:29:38.983Z,54.70
2017-04-16T01:30:38.780Z,54.60
2017-04-16T01:31:38.631Z,54.80
2017-04-16T01:32:39.112Z,55.00
2017-04-16T01:33:39.699Z,55.00
2017-04-16T01:34:39.675Z,55.30
2017-04-16T01:35:39.499Z,55.60
2017-04-16T01:36:39.252Z,55.70
2017-04-16T01:37:39.004Z,55.80
2017-04-16T01:38:38.795Z,56.00
2017-04-16T01:39:38.591Z,56.10
2017-04-16T01:40:38.363Z,56.10
2017-04-16T01:41:38.799Z,56.70
2017-04-16T01:42:38.579Z,56.40
2017-04-16T01:43:38.348Z,56.20
2017-04-16T01:44:38.127Z,56.20
2017-04-16T01:45:37.895Z,56.40
2017-04-16T01:46:37.770Z,56.50
2017-04-16T01:47:37.543Z,56.60
2017-04-16T01:49:37.278Z,56.70
2017-04-16T01:50:37.798Z,56.60
2017-04-16T01:51:38.295Z,56.70
2017-04-16T01:53:38.079Z,56.90
2017-04-16T01:54:37.964Z,57.10
2017-04-16T01:55:38.466Z,57.20
2017-04-16T01:56:38.219Z,57.30
2017-04-16T01:57:37.995Z,57.40
2017-04-16T01:58:37.783Z,57.50
2017-04-16T01:59:37.566Z,57.60
2017-04-16T02:00:37.335Z,57.70
2017-04-16T02:01:37.122Z,57.90
2017-04-16T02:02:36.875Z,58.00
2017-04-16T02:03:36.699Z,58.00
2017-04-16T02:04:36.419Z,58.20
2017-04-16T02:05:36.295Z,58.40
2017-04-16T02:06:36.043Z,58.60
2017-04-16T02:07:36.611Z,58.60
2017-04-16T02:08:36.412Z,58.70
2017-04-16T02:09:36.179Z,58.80
2017-04-16T02:10:35.966Z,58.80
2017-04-16T02:11:36.491Z,58.90
2017-04-16T02:12:36.267Z,58.80
2017-04-16T02:13:36.020Z,58.90
2017-04-16T02:14:35.782Z,59.10
2017-04-16T02:15:35.518Z,59.10
2017-04-16T02:16:35.263Z,59.10
2017-04-16T02:17:35.039Z,59.60
2017-04-16T02:18:34.826Z,59.00
2017-04-16T02:19:34.886Z,59.10
2017-04-16T02:20:34.658Z,59.00
2017-04-16T02:21:34.450Z,59.00
2017-04-16T02:22:34.218Z,59.10
2017-04-16T02:23:34.155Z,59.70
2017-04-16T02:24:33.941Z,59.10
2017-04-16T02:25:33.731Z,59.10
2017-04-16T02:26:33.490Z,59.50
2017-04-16T02:27:33.270Z,59.10
2017-04-16T02:28:33.039Z,59.20
2017-04-16T02:29:33.070Z,59.30
2017-04-16T02:30:32.834Z,59.20
2017-04-16T02:31:32.642Z,59.10
2017-04-16T02:32:32.421Z,59.20
2017-04-16T02:33:32.974Z,59.10
2017-04-16T02:34:32.974Z,59.10
2017-04-16T02:35:32.754Z,59.80
2017-04-16T02:36:32.562Z,59.10
2017-04-16T02:37:32.354Z,59.20
2017-04-16T02:38:32.858Z,59.60
2017-04-16T02:39:33.706Z,59.30
2017-04-16T02:40:33.510Z,59.30
2017-04-16T02:41:33.274Z,59.50
2017-04-16T02:42:33.050Z,59.20
2017-04-16T02:43:32.810Z,59.30
2017-04-16T02:44:33.334Z,59.30
2017-04-16T02:45:33.110Z,59.40
2017-04-16T02:46:32.854Z,59.40
2017-04-16T02:47:32.618Z,59.40
2017-04-16T02:48:32.370Z,59.40
2017-04-16T02:49:32.758Z,59.30
2017-04-16T02:50:32.558Z,59.30
2017-04-16T02:51:32.353Z,59.70
2017-04-16T02:52:32.109Z,59.20
2017-04-16T02:53:31.871Z,59.20
2017-04-16T02:54:31.637Z,59.30
2017-04-16T02:55:31.442Z,59.30
2017-04-16T02:56:31.261Z,59.30
2017-04-16T02:57:31.065Z,59.90
2017-04-16T02:58:30.838Z,59.40
2017-04-16T02:59:30.670Z,59.40
2017-04-16T03:00:30.458Z,59.30
2017-04-16T03:01:31.022Z,59.30
2017-04-16T03:02:30.785Z,59.30
2017-04-16T03:03:31.294Z,59.40
2017-04-16T03:04:31.821Z,59.50
2017-04-16T03:05:32.322Z,59.70
2017-04-16T03:06:32.846Z,59.40
2017-04-16T03:07:32.621Z,59.90
2017-04-16T03:08:32.422Z,59.90
2017-04-16T03:09:32.185Z,59.90
2017-04-16T03:10:31.945Z,60.00
2017-04-16T03:11:31.721Z,60.00
2017-04-16T03:13:37.666Z,60.10
2017-04-16T03:14:37.491Z,60.10
2017-04-16T03:15:37.309Z,60.20
2017-04-16T03:16:37.069Z,60.20
2017-04-16T03:17:36.887Z,60.40
2017-04-16T03:18:36.661Z,60.70
2017-04-16T03:19:36.417Z,61.00
2017-04-16T03:20:36.926Z,61.20
2017-04-16T03:21:36.689Z,61.20
2017-04-16T03:22:36.493Z,61.10
2017-04-16T03:23:36.252Z,61.00
2017-04-16T03:24:36.041Z,60.30
2017-04-16T03:25:36.553Z,60.80
2017-04-16T03:26:37.126Z,60.80
2017-04-16T03:27:36.974Z,61.10
2017-04-16T03:28:37.477Z,62.20
2017-04-16T03:29:37.265Z,61.50
2017-04-16T03:30:37.005Z,61.60
2017-04-16T03:31:36.801Z,61.90
2017-04-16T03:32:36.722Z,62.10
2017-04-16T03:33:36.494Z,62.30
2017-04-16T03:34:36.261Z,62.50
2017-04-16T03:35:36.805Z,62.60
2017-04-16T03:36:36.573Z,63.00
2017-04-16T03:37:36.361Z,63.10
2017-04-16T03:38:36.418Z,63.20
2017-04-16T03:39:36.929Z,63.60
2017-04-16T03:40:36.701Z,63.80
2017-04-16T03:41:36.489Z,64.00
2017-04-16T03:42:36.281Z,64.00
2017-04-16T03:43:36.074Z,64.20
2017-04-16T03:44:36.545Z,64.40
2017-04-16T03:45:36.309Z,64.10
2017-04-16T03:46:36.084Z,64.20
2017-04-16T03:47:35.898Z,64.20
2017-04-16T03:48:35.689Z,64.40
2017-04-16T03:49:36.209Z,64.30
2017-04-16T03:50:35.980Z,64.20
2017-04-16T03:51:35.803Z,64.20
2017-04-16T03:52:35.569Z,64.20
2017-04-16T03:53:35.381Z,64.20
2017-04-16T03:54:36.241Z,64.30
2017-04-16T03:55:36.009Z,64.30
2017-04-16T03:56:35.812Z,64.50
2017-04-16T03:57:35.585Z,64.50
2017-04-16T03:58:35.397Z,64.60
2017-04-16T03:59:35.185Z,64.50
2017-04-16T04:00:34.977Z,64.40
2017-04-16T04:01:34.749Z,64.60
2017-04-16T04:02:34.521Z,64.90
2017-04-16T04:03:34.349Z,65.10
2017-04-16T04:04:34.929Z,65.10
2017-04-16T04:05:34.697Z,65.00
2017-04-16T04:06:34.576Z,65.00
2017-04-16T04:07:34.365Z,65.20
2017-04-16T04:08:34.916Z,65.30
2017-04-16T04:09:34.712Z,65.60
2017-04-16T04:10:34.472Z,65.60
2017-04-16T04:11:40.880Z,65.40
2017-04-16T04:12:40.644Z,65.40
2017-04-16T04:13:41.150Z,65.30
2017-04-16T04:14:40.936Z,65.30
2017-04-16T04:15:40.682Z,65.60
2017-04-16T04:16:40.481Z,66.00
2017-04-16T04:17:40.278Z,65.90
2017-04-16T04:18:40.053Z,66.30
2017-04-16T04:20:39.836Z,67.00
2017-04-16T04:21:40.073Z,67.00
2017-04-16T04:23:39.852Z,66.60
2017-04-16T04:24:39.998Z,66.40
2017-04-16T04:25:39.789Z,66.20
2017-04-16T04:26:39.536Z,66.00
2017-04-16T04:27:39.337Z,66.60
2017-04-16T04:28:39.105Z,65.70
2017-04-16T04:29:38.905Z,65.40
2017-04-16T04:30:38.704Z,65.40
2017-04-16T04:31:38.505Z,65.30
2017-04-16T04:32:38.301Z,65.20
2017-04-16T04:33:38.068Z,65.30
2017-04-16T04:34:37.973Z,65.30
2017-04-16T04:35:37.720Z,65.10
2017-04-16T04:36:37.552Z,64.80
2017-04-16T04:37:37.388Z,64.70
2017-04-16T04:38:37.156Z,64.50
2017-04-16T04:39:36.936Z,64.70
2017-04-16T04:40:37.440Z,64.60
2017-04-16T04:41:38.004Z,64.30
2017-04-16T04:42:37.796Z,64.30
2017-04-16T04:43:37.589Z,64.10
2017-04-16T04:44:37.380Z,64.10
2017-04-16T04:45:37.909Z,64.00
2017-04-16T04:46:37.748Z,64.70
2017-04-16T04:47:37.504Z,64.30
2017-04-16T04:48:37.285Z,64.60
2017-04-16T04:49:37.849Z,65.40
2017-04-16T04:50:37.624Z,64.90
2017-04-16T04:51:38.164Z,64.90
2017-04-16T04:52:37.960Z,65.00
2017-04-16T04:53:37.756Z,65.00
2017-04-16T04:54:37.560Z,65.00
2017-04-16T04:55:37.361Z,64.90
2017-04-16T04:56:37.232Z,64.80
2017-04-16T04:57:37.024Z,64.70
2017-04-16T04:58:36.776Z,64.60
2017-04-16T04:59:36.556Z,64.60
2017-04-16T05:00:36.348Z,64.50
2017-04-16T05:01:36.148Z,64.40
2017-04-16T05:02:36.665Z,64.60
2017-04-16T05:03:37.184Z,64.50
2017-04-16T05:04:36.976Z,64.20
2017-04-16T05:05:36.744Z,64.10
2017-04-16T05:06:36.523Z,64.20
2017-04-16T05:07:36.333Z,64.30
2017-04-16T05:08:36.104Z,64.50
2017-04-16T05:09:35.900Z,64.80
2017-04-16T05:10:36.435Z,64.80
2017-04-16T05:11:36.948Z,64.70
2017-04-16T05:12:36.756Z,64.70
2017-04-16T05:13:36.537Z,64.90
2017-04-16T05:14:37.064Z,65.00
2017-04-16T05:15:36.844Z,64.90
2017-04-16T05:16:37.364Z,64.80
2017-04-16T05:17:37.168Z,64.90
2017-04-16T05:18:37.828Z,64.80
2017-04-16T05:19:37.583Z,64.60
2017-04-16T05:20:37.384Z,64.60
2017-04-16T05:21:37.168Z,65.00
2017-04-16T05:22:36.972Z,64.70
2017-04-16T05:23:37.636Z,65.10
2017-04-16T05:24:37.620Z,64.80
2017-04-16T05:25:37.392Z,64.90
2017-04-16T05:26:37.168Z,64.70
2017-04-16T05:27:37.009Z,65.00
2017-04-16T05:28:36.768Z,64.60
2017-04-16T05:29:36.543Z,64.60
2017-04-16T05:30:37.055Z,64.80
2017-04-16T05:31:37.592Z,65.20
2017-04-16T05:32:37.380Z,66.10
2017-04-16T05:33:37.897Z,64.60
2017-04-16T05:34:38.414Z,64.40
2017-04-16T05:35:38.963Z,64.00
2017-04-16T05:36:38.764Z,63.80
2017-04-16T05:37:45.331Z,63.60
2017-04-16T05:38:45.144Z,63.80
2017-04-16T05:39:44.919Z,63.80
2017-04-16T05:40:44.671Z,63.70
2017-04-16T05:41:44.435Z,63.20
2017-04-16T05:42:44.199Z,63.20
2017-04-16T05:43:44.740Z,63.40
2017-04-16T05:44:44.519Z,63.60
2017-04-16T05:45:45.023Z,64.00
2017-04-16T05:46:44.800Z,63.80
2017-04-16T05:47:44.559Z,63.70
2017-04-16T05:48:44.404Z,63.70
2017-04-16T05:49:44.172Z,63.20
2017-04-16T05:50:43.927Z,63.30
2017-04-16T05:51:43.684Z,63.20
2017-04-16T05:52:43.455Z,62.80
2017-04-16T05:53:43.220Z,62.50
2017-04-16T05:54:42.997Z,62.50
2017-04-16T05:55:42.980Z,62.60
2017-04-16T05:56:42.759Z,62.40
2017-04-16T05:57:42.575Z,62.80
2017-04-16T05:58:44.527Z,62.40
2017-04-16T05:59:44.275Z,61.90
2017-04-16T06:00:44.043Z,61.90
2017-04-16T06:01:43.827Z,61.90
2017-04-16T06:02:43.584Z,61.40
2017-04-16T06:03:43.363Z,61.40
2017-04-16T06:04:43.174Z,61.50
2017-04-16T06:05:42.943Z,61.70
2017-04-16T06:06:42.879Z,61.50
2017-04-16T06:07:42.691Z,61.40
2017-04-16T06:08:42.459Z,61.10
2017-04-16T06:09:42.239Z,61.20
2017-04-16T06:10:42.043Z,60.80
2017-04-16T06:11:41.815Z,60.40
2017-04-16T06:12:41.603Z,60.50
2017-04-16T06:13:41.383Z,60.10
2017-04-16T06:14:41.167Z,59.90
2017-04-16T06:15:40.915Z,60.00
2017-04-16T06:16:40.687Z,59.40
2017-04-16T06:17:40.447Z,59.10
2017-04-16T06:18:40.208Z,59.10
2017-04-16T06:20:39.943Z,59.30
2017-04-16T06:21:41.687Z,59.00
2017-04-16T06:22:42.223Z,58.90
2017-04-16T06:23:42.721Z,58.90
2017-04-16T06:24:43.216Z,59.60
2017-04-16T06:26:43.107Z,58.40
2017-04-16T06:27:42.972Z,58.50
2017-04-16T06:28:42.755Z,59.00
2017-04-16T06:29:43.275Z,58.50
2017-04-16T06:30:43.802Z,58.20
2017-04-16T06:31:43.596Z,58.10
2017-04-16T06:32:44.108Z,58.20
2017-04-16T06:33:43.878Z,57.90
2017-04-16T06:34:43.671Z,57.80
2017-04-16T06:35:43.471Z,57.70
2017-04-16T06:36:43.267Z,57.80
2017-04-16T06:37:43.015Z,57.90
2017-04-16T06:38:43.844Z,57.50
2017-04-16T06:39:44.347Z,57.30
2017-04-16T06:40:44.111Z,57.70
2017-04-16T06:41:43.916Z,57.40
2017-04-16T06:42:43.699Z,57.00
2017-04-16T06:43:43.462Z,56.80
2017-04-16T06:44:44.003Z,56.50
2017-04-16T06:45:43.751Z,56.10
2017-04-16T06:46:43.522Z,56.20
2017-04-16T06:47:43.678Z,56.30
2017-04-16T06:48:43.451Z,56.20
2017-04-16T06:49:43.763Z,56.10
2017-04-16T06:50:43.842Z,55.90
2017-04-16T06:51:43.610Z,56.20
2017-04-16T06:52:43.383Z,55.50
2017-04-16T06:53:43.183Z,55.50
2017-04-16T06:54:42.944Z,55.50
2017-04-16T06:55:42.702Z,55.30
2017-04-16T06:56:42.541Z,54.80
2017-04-16T06:57:42.318Z,55.20
2017-04-16T06:58:42.091Z,54.90
2017-04-16T06:59:41.851Z,54.80
2017-04-16T07:00:41.670Z,54.60
2017-04-16T07:01:41.402Z,54.00
2017-04-16T07:02:41.462Z,53.70
2017-04-16T07:03:41.923Z,53.80
2017-04-16T07:04:42.010Z,53.60
2017-04-16T07:05:48.563Z,53.20
2017-04-16T07:06:48.339Z,53.40
2017-04-16T07:07:48.235Z,52.70
2017-04-16T07:08:47.991Z,52.30
2017-04-16T07:09:47.743Z,52.60
2017-04-16T07:10:47.511Z,52.50
2017-04-16T07:11:47.290Z,52.20
2017-04-16T07:12:47.047Z,52.20
2017-04-16T07:13:46.839Z,51.30
2017-04-16T07:14:47.355Z,51.30
2017-04-16T07:15:47.842Z,51.40
2017-04-16T07:16:47.614Z,51.30
2017-04-16T07:17:47.371Z,51.70
2017-04-16T07:18:47.907Z,52.00
2017-04-16T07:19:47.631Z,50.50
2017-04-16T07:20:47.402Z,50.70
2017-04-16T07:21:47.914Z,50.40
2017-04-16T07:22:48.394Z,49.90
2017-04-16T07:23:48.200Z,49.90
2017-04-16T07:24:47.966Z,49.80
2017-04-16T07:25:47.730Z,49.60
2017-04-16T07:26:48.234Z,48.60
2017-04-16T07:27:48.858Z,48.60
2017-04-16T07:28:48.704Z,48.70
2017-04-16T07:29:48.445Z,47.60
2017-04-16T07:30:48.226Z,47.60
2017-04-16T07:31:48.006Z,47.40
2017-04-16T07:32:47.819Z,47.60
2017-04-16T07:33:47.614Z,47.00
2017-04-16T07:34:47.419Z,46.70
2017-04-16T07:35:47.186Z,47.00
2017-04-16T07:36:47.702Z,46.80
2017-04-16T07:37:48.227Z,46.70
2017-04-16T07:38:48.734Z,46.60
2017-04-16T07:39:49.269Z,47.20
2017-04-16T07:40:49.738Z,47.50
2017-04-16T07:41:49.502Z,48.20
2017-04-16T07:42:49.254Z,48.30
2017-04-16T07:43:49.013Z,48.50
2017-04-16T07:44:48.802Z,48.30
2017-04-16T07:45:48.554Z,47.00
2017-04-16T07:46:48.353Z,47.90
2017-04-16T07:47:48.107Z,47.90
2017-04-16T07:48:47.842Z,48.70
2017-04-16T07:49:47.582Z,48.10
2017-04-16T07:50:48.090Z,48.10
2017-04-16T07:51:47.861Z,48.30
2017-04-16T07:52:47.605Z,47.50
2017-04-16T07:53:48.090Z,48.00
2017-04-16T07:54:47.842Z,47.80
2017-04-16T07:55:47.650Z,47.90
2017-04-16T07:56:47.406Z,48.30
2017-04-16T07:57:47.167Z,48.50
2017-04-16T07:58:46.934Z,48.50
2017-04-16T07:59:47.170Z,48.20
2017-04-16T08:00:46.905Z,48.40
2017-04-16T08:01:46.706Z,48.30
2017-04-16T08:02:46.474Z,48.40
2017-04-16T08:03:46.406Z,48.30
2017-04-16T08:04:46.166Z,48.70
2017-04-16T08:05:45.930Z,48.30
2017-04-16T08:06:45.686Z,48.60
2017-04-16T08:07:45.598Z,48.20
2017-04-16T08:08:45.362Z,48.90
2017-04-16T08:09:45.837Z,49.00
2017-04-16T08:10:45.618Z,49.20
2017-04-16T08:11:45.370Z,49.00
2017-04-16T08:12:45.881Z,48.90
2017-04-16T08:13:45.826Z,49.20
2017-04-16T08:14:45.578Z,48.70
2017-04-16T08:15:45.305Z,48.60
2017-04-16T08:16:45.061Z,48.60
2017-04-16T08:17:44.801Z,48.80
2017-04-16T08:18:45.290Z,48.50
2017-04-16T08:19:45.045Z,48.40
2017-04-16T08:20:44.809Z,48.70
2017-04-16T08:21:44.593Z,48.50
2017-04-16T08:22:44.365Z,48.40
2017-04-16T08:23:44.106Z,48.50
2017-04-16T08:24:43.865Z,48.60
2017-04-16T08:25:43.613Z,48.90
2017-04-16T08:26:43.369Z,49.10
2017-04-16T08:27:43.101Z,49.10
2017-04-16T08:28:42.854Z,49.10
2017-04-16T08:29:42.618Z,49.30
2017-04-16T08:31:42.356Z,49.50
2017-04-16T08:32:42.090Z,49.50
2017-04-16T08:33:41.894Z,49.50
2017-04-16T08:34:41.637Z,49.40
2017-04-16T08:35:42.125Z,49.10
2017-04-16T08:37:41.865Z,49.00
2017-04-16T08:38:40.845Z,49.00
2017-04-16T08:39:40.613Z,49.50
2017-04-16T08:40:40.345Z,49.60
2017-04-16T08:41:40.125Z,49.10
2017-04-16T08:42:41.034Z,49.50
2017-04-16T08:43:40.989Z,49.30
2017-04-16T08:44:40.777Z,49.00
2017-04-16T08:45:41.311Z,49.30
2017-04-16T08:46:41.605Z,49.70
2017-04-16T08:47:42.137Z,49.40
2017-04-16T08:48:41.921Z,49.40
2017-04-16T08:49:41.684Z,49.30
2017-04-16T08:50:41.468Z,49.30
2017-04-16T08:51:41.245Z,49.60
2017-04-16T08:52:41.046Z,49.10
2017-04-16T08:53:41.514Z,49.00
2017-04-16T08:54:41.305Z,49.40
2017-04-16T08:55:41.082Z,49.10
2017-04-16T08:56:40.845Z,48.90
2017-04-16T08:57:40.613Z,48.80
2017-04-16T08:58:40.361Z,48.30
2017-04-16T08:59:40.109Z,48.40
2017-04-16T09:00:39.905Z,47.40
2017-04-16T09:01:39.645Z,47.00
2017-04-16T09:02:39.395Z,46.90
2017-04-16T09:03:39.168Z,46.90
2017-04-16T09:04:38.937Z,46.70
2017-04-16T09:05:38.670Z,46.70
2017-04-16T09:06:38.428Z,47.10
2017-04-16T09:07:38.169Z,46.80
2017-04-16T09:08:37.937Z,46.20
2017-04-16T09:09:37.705Z,46.40
2017-04-16T09:10:37.444Z,46.50
2017-04-16T09:11:37.209Z,46.20
2017-04-16T09:12:36.969Z,46.30
2017-04-16T09:13:36.728Z,47.40
2017-04-16T09:14:36.501Z,47.20
2017-04-16T09:15:36.301Z,46.20
2017-04-16T09:16:36.076Z,45.80
2017-04-16T09:17:35.853Z,46.00
2017-04-16T09:18:36.784Z,45.80
2017-04-16T09:19:36.552Z,45.20
2017-04-16T09:20:36.329Z,45.00
2017-04-16T09:21:36.080Z,44.90
2017-04-16T09:22:35.942Z,44.70
2017-04-16T09:23:35.733Z,45.20
2017-04-16T09:24:35.529Z,45.40
2017-04-16T09:25:35.293Z,45.60
2017-04-16T09:26:35.109Z,45.70
2017-04-16T09:27:35.620Z,45.60
2017-04-16T09:28:35.537Z,45.30
2017-04-16T09:29:36.036Z,45.70
2017-04-16T09:30:35.832Z,45.50
2017-04-16T09:31:36.308Z,45.50
2017-04-16T09:32:36.155Z,45.90
2017-04-16T09:33:36.345Z,45.80
2017-04-16T09:34:36.188Z,46.20
2017-04-16T09:35:36.684Z,46.10
2017-04-16T09:36:36.480Z,45.70
2017-04-16T09:37:36.276Z,46.20
2017-04-16T09:38:36.885Z,46.30
2017-04-16T09:39:36.648Z,45.80
2017-04-16T09:40:36.432Z,45.30
2017-04-16T09:41:36.952Z,44.80
2017-04-16T09:42:36.765Z,44.70
2017-04-16T09:43:36.520Z,44.50
2017-04-16T09:44:38.781Z,43.90
2017-04-16T09:45:38.717Z,43.80
2017-04-16T09:46:39.280Z,44.00
2017-04-16T09:47:39.045Z,43.70
2017-04-16T09:48:38.848Z,43.50
2017-04-16T09:49:38.617Z,43.40
2017-04-16T09:50:38.372Z,43.10
2017-04-16T09:51:38.134Z,43.10
2017-04-16T09:52:37.884Z,43.20
2017-04-16T09:53:37.657Z,42.50
2017-04-16T09:54:37.405Z,43.20
2017-04-16T09:55:37.168Z,43.80
2017-04-16T09:56:37.012Z,43.40
2017-04-16T09:57:36.752Z,43.40
2017-04-16T09:58:37.273Z,43.40
2017-04-16T09:59:37.036Z,43.20
2017-04-16T10:00:36.892Z,43.80
2017-04-16T10:01:36.656Z,43.30
2017-04-16T10:02:37.188Z,42.60
2017-04-16T10:03:37.664Z,42.30
2017-04-16T10:04:37.431Z,42.40
2017-04-16T10:05:37.204Z,42.60
2017-04-16T10:06:37.736Z,42.30
2017-04-16T10:07:37.524Z,41.50
2017-04-16T10:08:37.308Z,41.20
2017-04-16T10:09:37.124Z,41.40
2017-04-16T10:10:36.939Z,41.70
2017-04-16T10:11:36.711Z,41.60
2017-04-16T10:12:37.012Z,40.30
2017-04-16T10:13:36.773Z,40.00
2017-04-16T10:14:36.632Z,40.30
2017-04-16T10:15:37.264Z,40.70
2017-04-16T10:16:37.756Z,40.60
2017-04-16T10:17:37.596Z,40.00
2017-04-16T10:18:38.092Z,39.50
2017-04-16T10:19:38.567Z,39.40
2017-04-16T10:20:38.476Z,39.00
2017-04-16T10:21:38.244Z,39.00
2017-04-16T10:22:38.039Z,40.30
2017-04-16T10:23:37.836Z,39.70
2017-04-16T10:24:37.620Z,39.50
2017-04-16T10:25:37.389Z,40.20
2017-04-16T10:26:37.264Z,40.30
2017-04-16T10:27:37.176Z,40.10
2017-04-16T10:28:37.836Z,40.40
2017-04-16T10:29:37.928Z,40.50
2017-04-16T10:30:37.772Z,40.90
2017-04-16T10:31:37.547Z,40.80
2017-04-16T10:32:37.313Z,40.90
2017-04-16T10:33:37.271Z,41.50
2017-04-16T10:34:37.364Z,41.20
2017-04-16T10:35:37.144Z,40.70
2017-04-16T10:36:36.992Z,41.20
2017-04-16T10:37:36.764Z,41.50
2017-04-16T10:38:36.556Z,42.10
2017-04-16T10:39:36.379Z,42.40
2017-04-16T10:40:36.192Z,42.70
2017-04-16T10:41:36.023Z,43.20
2017-04-16T10:42:36.647Z,43.60
2017-04-16T10:43:36.423Z,43.90
2017-04-16T10:44:36.592Z,43.80
2017-04-16T10:45:36.340Z,43.60
2017-04-16T10:46:37.211Z,43.70
2017-04-16T10:47:37.008Z,43.50
2017-04-16T10:48:36.803Z,43.90
2017-04-16T10:49:36.580Z,43.30
2017-04-16T10:50:36.383Z,43.30
2017-04-16T10:51:36.371Z,43.70
2017-04-16T10:52:36.124Z,43.00
2017-04-16T10:53:35.900Z,42.90
2017-04-16T10:54:35.664Z,43.10
2017-04-16T10:55:35.455Z,43.30
2017-04-16T10:56:35.963Z,43.20
2017-04-16T10:57:35.800Z,43.20
2017-04-16T10:58:35.567Z,43.10
2017-04-16T10:59:35.386Z,43.20
2017-04-16T11:00:35.267Z,43.40
2017-04-16T11:01:35.083Z,43.40
2017-04-16T11:02:35.295Z,43.50
2017-04-16T11:03:35.452Z,43.30
2017-04-16T11:04:35.539Z,43.00
2017-04-16T11:05:35.503Z,43.10
2017-04-16T11:06:35.364Z,42.90
2017-04-16T11:07:36.132Z,43.50
2017-04-16T11:08:37.803Z,43.50
2017-04-16T11:09:37.859Z,43.50
2017-04-16T11:10:38.359Z,43.50
2017-04-16T11:11:38.127Z,43.80
2017-04-16T11:12:38.655Z,44.60
2017-04-16T11:13:38.435Z,44.40
2017-04-16T11:14:38.236Z,45.60
2017-04-16T11:15:37.992Z,47.20
2017-04-16T11:16:37.732Z,47.80
2017-04-16T11:17:37.519Z,48.20
2017-04-16T11:18:37.299Z,48.40
2017-04-16T11:19:37.064Z,48.90
2017-04-16T11:20:36.835Z,49.20
2017-04-16T11:21:36.623Z,48.60
2017-04-16T11:22:36.387Z,49.00
2017-04-16T11:23:36.717Z,48.60
2017-04-16T11:24:36.522Z,48.40
2017-04-16T11:25:36.344Z,48.90
2017-04-16T11:26:36.155Z,49.20
2017-04-16T11:27:35.924Z,49.90
2017-04-16T11:28:35.723Z,50.10
2017-04-16T11:29:35.535Z,50.60
2017-04-16T11:30:35.807Z,51.10
2017-04-16T11:31:35.615Z,52.90
2017-04-16T11:32:36.120Z,53.60
2017-04-16T11:33:35.944Z,52.80
2017-04-16T11:34:35.915Z,53.10
2017-04-16T11:35:35.710Z,52.40
2017-04-16T11:36:35.483Z,53.10
2017-04-16T11:37:36.060Z,51.90
2017-04-16T11:38:36.163Z,50.80
2017-04-16T11:39:35.935Z,51.80
2017-04-16T11:40:35.694Z,52.20
2017-04-16T11:41:36.135Z,53.50
2017-04-16T11:42:35.875Z,53.00
2017-04-16T11:43:35.627Z,52.80
2017-04-16T11:44:35.382Z,52.70
2017-04-16T11:45:35.126Z,52.20
2017-04-16T11:46:34.863Z,53.10
2017-04-16T11:47:34.631Z,52.60
2017-04-16T11:48:34.412Z,52.00
2017-04-16T11:49:34.179Z,52.70
2017-04-16T11:50:33.963Z,53.10
2017-04-16T11:51:33.698Z,53.00
2017-04-16T11:52:33.462Z,53.20
2017-04-16T11:53:33.234Z,53.10
2017-04-16T11:54:32.978Z,52.60
2017-04-16T11:55:32.770Z,51.80
2017-04-16T11:56:32.518Z,52.70
2017-04-16T11:57:32.274Z,53.20
2017-04-16T11:59:33.318Z,53.40
2017-04-16T12:00:33.291Z,53.10
2017-04-16T12:01:33.051Z,53.60
2017-04-16T12:02:32.958Z,52.80
2017-04-16T12:03:36.131Z,52.30
2017-04-16T12:04:41.338Z,52.10
2017-04-16T12:05:53.354Z,52.10
2017-04-16T12:07:03.994Z,51.50
2017-04-16T12:08:04.087Z,51.30
2017-04-16T12:09:04.253Z,51.20
2017-04-16T12:10:04.018Z,50.90
2017-04-16T12:11:03.755Z,50.80
2017-04-16T12:12:03.486Z,50.80
2017-04-16T12:13:03.282Z,51.30
2017-04-16T12:14:03.050Z,51.30
2017-04-16T12:15:02.890Z,51.10
2017-04-16T12:16:02.710Z,51.30
2017-04-16T12:17:02.532Z,51.00
2017-04-16T12:18:02.352Z,51.20
2017-04-16T12:19:02.146Z,52.10
2017-04-16T12:20:01.963Z,52.10
2017-04-16T12:21:01.747Z,52.20
2017-04-16T12:22:01.535Z,52.20
2017-04-16T12:23:01.327Z,52.60
2017-04-16T12:24:01.094Z,51.60
2017-04-16T12:25:00.882Z,51.30
2017-04-16T12:26:00.690Z,51.00
2017-04-16T12:27:00.466Z,50.70
2017-04-16T12:28:00.266Z,49.70
2017-04-16T12:29:00.038Z,50.10
2017-04-16T12:29:59.795Z,50.10
2017-04-16T12:30:59.550Z,49.60
2017-04-16T12:31:59.295Z,49.20
2017-04-16T12:32:59.071Z,49.30
2017-04-16T12:33:58.822Z,49.50
2017-04-16T12:34:58.619Z,49.10
2017-04-16T12:35:58.410Z,49.50
2017-04-16T12:36:58.190Z,49.80
2017-04-16T12:37:58.003Z,49.30
2017-04-16T12:38:57.782Z,49.30
2017-04-16T12:39:57.542Z,49.80
2017-04-16T12:40:57.358Z,49.90
2017-04-16T12:41:58.098Z,50.30
2017-04-16T12:42:58.614Z,49.80
2017-04-16T12:43:58.414Z,48.60
2017-04-16T12:44:58.931Z,49.00
2017-04-16T12:45:59.450Z,49.40
2017-04-16T12:46:59.230Z,49.90
2017-04-16T12:47:59.010Z,48.50
2017-04-16T12:48:58.819Z,47.50
2017-04-16T12:49:58.594Z,47.20
2017-04-16T12:50:58.618Z,46.30
2017-04-16T12:51:58.402Z,46.10
2017-04-16T12:52:58.224Z,46.90
2017-04-16T12:53:58.014Z,46.90
2017-04-16T12:54:57.790Z,46.20
2017-04-16T12:55:57.582Z,46.70
2017-04-16T12:56:57.374Z,47.10
2017-04-16T12:57:57.158Z,47.20
2017-04-16T12:58:57.098Z,47.00
2017-04-16T12:59:56.865Z,46.10
2017-04-16T13:00:56.925Z,45.90
2017-04-16T13:01:57.403Z,46.00
2017-04-16T13:02:57.930Z,46.70